EKAH/AAR METAR and TAF weather

Enter ICAO airport designator
Station Type Date Time Source
EKAH METAR 2019/10/15 08:20 UTC NOAA

EKAH 150820Z AUTO 14007KT 100V200 9999NDV NCD 13/10 Q1008


Station Type Date Time Source
EKAH Decoded METAR 2019/10/15 08:20 UTC NOAA

Tirstrup, Denmark (EKAH) 56-18N 010-37E 25M
Oct 15, 2019 - 04:20 AM EDT / 2019.10.15 0820 UTC
Wind: from the SE (140 degrees) at 8 MPH (7 KT) (direction variable):0
Temperature: 55 F (13 C)
Dew Point: 50 F (10 C)
Relative Humidity: 81%
Pressure (altimeter): 29.77 in. Hg (1008 hPa)
ob: EKAH 150820Z AUTO 14007KT 100V200 9999NDV NCD 13/10 Q1008
cycle: 8

Station Type Date Time Source
EKAH TAF 2019/10/15 06:31 UTC NOAA

TAF EKAH 150456Z 1506/1606 11012KT 9999 SCT030
TEMPO 1506/1511 BKN006
TEMPO 1511/1517 BKN012
TEMPO 1517/1521 4000 BR BKN008
BECMG 1521/1523 VRB02KT PROB40 1521/1606 0500 FG BKN002

Example: see airport list